Time;durP1;ratioP1;P1;durP2;ratioP2;P2;SDS_P1;SDS_P2;PMS_P1;PMS_P2;Temp;Humidity;BMP_temperature;BMP_pressure;BME280_temperature;BME280_humidity;BME280_pressure;Samples;Min_cycle;Max_cycle;Signal;HPM_P1;HPM_P2
2021/08/21 00:00:05;;;;;;;;;7.00;5.00;;;;;;;;4988666;28;45312;-81
2021/08/21 00:02:30;;;;;;;;;5.50;3.75;;;;;;;;4986055;28;45380;-81
2021/08/21 00:04:55;;;;;;;;;2.67;2.67;;;;;;;;4985885;28;45300;-81
2021/08/21 00:07:20;;;;;;;;;4.25;4.00;;;;;;;;4984048;28;47286;-81
2021/08/21 00:09:46;;;;;;;;;4.75;3.00;;;;;;;;4985519;28;45206;-81
2021/08/21 00:12:11;;;;;;;;;4.00;4.00;;;;;;;;4985862;28;45468;-81
2021/08/21 00:14:37;;;;;;;;;4.67;4.67;;;;;;;;4987282;28;45407;-81
2021/08/21 00:17:02;;;;;;;;;5.00;4.00;;;;;;;;4981530;28;45276;-81
2021/08/21 00:19:28;;;;;;;;;5.75;4.50;;;;;;;;4980194;28;45231;-81
2021/08/21 00:21:53;;;;;;;;;5.00;3.75;;;;;;;;4982118;28;45282;-81
2021/08/21 00:24:19;;;;;;;;;6.00;4.00;;;;;;;;4982255;28;45255;-81
2021/08/21 00:26:44;;;;;;;;;5.00;4.00;;;;;;;;4981260;28;46688;-81
2021/08/21 00:29:09;;;;;;;;;4.67;3.67;;;;;;;;4980204;28;45268;-81
2021/08/21 00:31:34;;;;;;;;;5.00;5.00;;;;;;;;4996534;28;45400;-81
2021/08/21 00:34:00;;;;;;;;;4.00;4.00;;;;;;;;4999578;28;45436;-81
2021/08/21 00:36:25;;;;;;;;;6.50;5.00;;;;;;;;4999640;28;46142;-81
2021/08/21 00:38:51;;;;;;;;;6.67;5.33;;;;;;;;5001206;28;45426;-81
2021/08/21 00:41:16;;;;;;;;;6.00;5.00;;;;;;;;5005466;28;45463;-81
2021/08/21 00:43:42;;;;;;;;;6.25;5.00;;;;;;;;5001044;28;46466;-80
2021/08/21 00:46:07;;;;;;;;;4.75;4.75;;;;;;;;4999781;28;47336;-81
2021/08/21 00:48:32;;;;;;;;;3.00;3.00;;;;;;;;5000789;28;45316;-81
2021/08/21 00:51:01;;;;;;;;;5.00;5.00;;;;;;;;5001397;28;45345;-81
2021/08/21 00:53:26;;;;;;;;;5.75;4.00;;;;;;;;4999988;28;45475;-81
2021/08/21 00:55:51;;;;;;;;;5.00;4.00;;;;;;;;5001562;28;45324;-81
2021/08/21 00:58:20;;;;;;;;;5.00;3.75;;;;;;;;5004367;28;45225;-81
2021/08/21 01:00:45;;;;;;;;;4.00;4.00;;;;;;;;5004954;28;45281;-81
2021/08/21 01:03:11;;;;;;;;;5.00;4.00;;;;;;;;5004762;28;45391;-81
2021/08/21 01:05:36;;;;;;;;;5.50;4.00;;;;;;;;5004381;28;46701;-81
2021/08/21 01:08:01;;;;;;;;;4.33;4.33;;;;;;;;5002968;28;45401;-81
2021/08/21 01:10:26;;;;;;;;;6.00;5.00;;;;;;;;5001082;28;45414;-81
2021/08/21 01:12:52;;;;;;;;;5.67;5.00;;;;;;;;5000738;28;45290;-81
2021/08/21 01:15:19;;;;;;;;;3.25;3.25;;;;;;;;4984842;28;48274;-81
2021/08/21 01:17:44;;;;;;;;;4.50;4.00;;;;;;;;4986276;28;45246;-81
2021/08/21 01:20:09;;;;;;;;;4.00;4.00;;;;;;;;5004317;28;44747;-81
2021/08/21 01:22:35;;;;;;;;;5.00;5.00;;;;;;;;4986214;28;45374;-81
2021/08/21 01:25:01;;;;;;;;;5.50;5.00;;;;;;;;4980544;28;46212;-81
2021/08/21 01:27:33;;;;;;;;;4.00;4.00;;;;;;;;4980143;28;45235;-81
2021/08/21 01:29:59;;;;;;;;;4.00;3.50;;;;;;;;4982219;28;45347;-81
2021/08/21 01:32:25;;;;;;;;;7.50;5.00;;;;;;;;4999200;28;45568;-81
2021/08/21 01:34:51;;;;;;;;;5.50;5.00;;;;;;;;4999852;28;45308;-81
2021/08/21 01:37:20;;;;;;;;;6.00;5.00;;;;;;;;4999539;28;45245;-81
2021/08/21 01:39:46;;;;;;;;;5.50;4.00;;;;;;;;5000372;28;45415;-81
2021/08/21 01:42:11;;;;;;;;;5.00;4.75;;;;;;;;4999607;28;45309;-81
2021/08/21 01:44:37;;;;;;;;;6.25;4.75;;;;;;;;4999806;28;45419;-81
2021/08/21 01:47:02;;;;;;;;;5.00;5.00;;;;;;;;4999235;28;45388;-81
2021/08/21 01:49:27;;;;;;;;;6.00;5.00;;;;;;;;5000321;28;45631;-81
2021/08/21 01:51:53;;;;;;;;;5.33;5.33;;;;;;;;5000454;28;45587;-81
2021/08/21 01:54:19;;;;;;;;;4.50;4.50;;;;;;;;5000520;28;45247;-81
2021/08/21 01:56:48;;;;;;;;;4.00;4.00;;;;;;;;5003301;28;45435;-81
2021/08/21 01:59:17;;;;;;;;;8.75;5.50;;;;;;;;5004689;28;45271;-81
2021/08/21 02:01:43;;;;;;;;;6.00;5.25;;;;;;;;5005344;28;45297;-80
2021/08/21 02:04:08;;;;;;;;;6.00;4.25;;;;;;;;5003702;28;45230;-81
2021/08/21 02:06:33;;;;;;;;;7.67;5.00;;;;;;;;4992251;28;45474;-81
2021/08/21 02:08:58;;;;;;;;;4.00;4.00;;;;;;;;5002990;28;45371;-81
2021/08/21 02:11:24;;;;;;;;;4.00;4.00;;;;;;;;5003598;28;45209;-81
2021/08/21 02:13:49;;;;;;;;;5.00;4.00;;;;;;;;5001266;28;47572;-81
2021/08/21 02:16:14;;;;;;;;;6.33;4.67;;;;;;;;5001093;28;45354;-81
2021/08/21 02:18:39;;;;;;;;;5.67;4.00;;;;;;;;5002717;28;45262;-81
2021/08/21 02:21:05;;;;;;;;;4.33;4.33;;;;;;;;5002301;28;45510;-80
2021/08/21 02:23:30;;;;;;;;;5.33;5.33;;;;;;;;5002703;28;46121;-81
2021/08/21 02:25:56;;;;;;;;;7.67;5.00;;;;;;;;5002284;28;45309;-81
2021/08/21 02:28:22;;;;;;;;;7.00;5.00;;;;;;;;5002648;28;45255;-81
2021/08/21 02:30:47;;;;;;;;;6.00;6.00;;;;;;;;5000637;28;45283;-81
2021/08/21 02:33:12;;;;;;;;;5.25;5.25;;;;;;;;5001058;28;47603;-81
2021/08/21 02:35:38;;;;;;;;;4.50;4.50;;;;;;;;5002345;28;45233;-81
2021/08/21 02:38:03;;;;;;;;;8.25;5.25;;;;;;;;5002526;28;45512;-81
2021/08/21 02:40:29;;;;;;;;;6.00;6.00;;;;;;;;5002388;28;45368;-81
2021/08/21 02:42:54;;;;;;;;;6.75;5.75;;;;;;;;5000971;28;47330;-81
2021/08/21 02:45:19;;;;;;;;;7.00;5.75;;;;;;;;5000518;28;45453;-81
2021/08/21 02:47:45;;;;;;;;;6.25;6.25;;;;;;;;5002303;28;45459;-81
2021/08/21 02:50:10;;;;;;;;;7.33;6.33;;;;;;;;5002123;28;45423;-80
2021/08/21 02:52:35;;;;;;;;;5.50;5.50;;;;;;;;5002058;28;46592;-80
2021/08/21 02:55:01;;;;;;;;;6.67;4.33;;;;;;;;5002068;28;45360;-80
2021/08/21 02:57:26;;;;;;;;;9.75;6.75;;;;;;;;5000608;28;45400;-80
2021/08/21 02:59:51;;;;;;;;;7.00;5.33;;;;;;;;5002019;28;45407;-80
2021/08/21 03:02:16;;;;;;;;;8.33;5.33;;;;;;;;5000361;28;47469;-81
2021/08/21 03:04:41;;;;;;;;;8.00;6.00;;;;;;;;5001964;28;45502;-80
2021/08/21 03:07:07;;;;;;;;;6.33;5.33;;;;;;;;5001720;28;45405;-80
2021/08/21 03:09:32;;;;;;;;;7.00;5.00;;;;;;;;5001977;28;45411;-80
2021/08/21 03:11:57;;;;;;;;;7.00;6.00;;;;;;;;5002405;28;45405;-80
2021/08/21 03:14:22;;;;;;;;;7.00;6.33;;;;;;;;5004970;28;45456;-80
2021/08/21 03:16:47;;;;;;;;;6.33;6.33;;;;;;;;4983375;28;45527;-80
2021/08/21 03:19:13;;;;;;;;;5.33;5.00;;;;;;;;5001971;28;45448;-80
2021/08/21 03:21:38;;;;;;;;;5.67;4.00;;;;;;;;4984472;28;47204;-81
2021/08/21 03:24:05;;;;;;;;;7.00;6.00;;;;;;;;5002158;28;45211;-81
2021/08/21 03:26:30;;;;;;;;;2.00;2.00;;;;;;;;5002400;28;45254;-81
2021/08/21 03:28:55;;;;;;;;;7.00;6.00;;;;;;;;4990783;28;45138;-80
2021/08/21 03:31:20;;;;;;;;;6.33;5.33;;;;;;;;4983882;28;47103;-81
2021/08/21 03:33:46;;;;;;;;;6.33;6.00;;;;;;;;5005703;28;45144;-80
2021/08/21 03:36:11;;;;;;;;;10.33;8.33;;;;;;;;4987862;28;45398;-81
2021/08/21 03:38:36;;;;;;;;;11.00;9.67;;;;;;;;5004129;28;45284;-80
2021/08/21 03:41:01;;;;;;;;;8.00;7.00;;;;;;;;5002035;28;46254;-81
2021/08/21 03:43:26;;;;;;;;;8.67;8.00;;;;;;;;5001153;28;45203;-80
2021/08/21 03:45:52;;;;;;;;;7.67;7.00;;;;;;;;4982260;28;45189;-81
2021/08/21 03:48:17;;;;;;;;;7.67;7.33;;;;;;;;4964815;28;45889;-81
2021/08/21 03:50:42;;;;;;;;;7.00;6.33;;;;;;;;4982359;28;45284;-81
2021/08/21 03:53:07;;;;;;;;;6.00;6.00;;;;;;;;4981942;28;45207;-81
2021/08/21 03:55:33;;;;;;;;;6.00;6.00;;;;;;;;4984742;28;45223;-81
2021/08/21 03:57:58;;;;;;;;;6.00;6.00;;;;;;;;5001372;28;45190;-81
2021/08/21 04:00:24;;;;;;;;;6.00;6.00;;;;;;;;5001417;28;45392;-81
2021/08/21 04:02:49;;;;;;;;;6.50;5.50;;;;;;;;4983722;28;45403;-81
2021/08/21 04:05:14;;;;;;;;;7.00;6.00;;;;;;;;5002017;28;45332;-81
2021/08/21 04:07:39;;;;;;;;;7.00;4.67;;;;;;;;5001419;28;45465;-80
2021/08/21 04:10:05;;;;;;;;;6.67;5.00;;;;;;;;4983587;28;46003;-80
2021/08/21 04:12:31;;;;;;;;;7.25;7.00;;;;;;;;5003229;28;45250;-80
2021/08/21 04:14:56;;;;;;;;;5.00;4.00;;;;;;;;4987751;28;45367;-80
2021/08/21 04:17:23;;;;;;;;;6.33;6.00;;;;;;;;5001585;28;45229;-80
2021/08/21 04:19:48;;;;;;;;;7.00;5.25;;;;;;;;5003068;28;45278;-80
2021/08/21 04:22:13;;;;;;;;;6.00;6.00;;;;;;;;4984338;28;45325;-80
2021/08/21 04:24:38;;;;;;;;;4.67;4.67;;;;;;;;5000386;28;45210;-81
2021/08/21 04:27:04;;;;;;;;;5.67;5.67;;;;;;;;4997198;28;45197;-81
2021/08/21 04:29:29;;;;;;;;;5.50;4.00;;;;;;;;4987317;28;46949;-81
2021/08/21 04:31:54;;;;;;;;;7.33;6.00;;;;;;;;5005365;28;45562;-81
2021/08/21 04:34:20;;;;;;;;;7.25;6.00;;;;;;;;5005387;28;45225;-81
2021/08/21 04:36:45;;;;;;;;;6.67;4.00;;;;;;;;5005487;28;45194;-81
2021/08/21 04:39:10;;;;;;;;;7.25;5.50;;;;;;;;5014014;28;45456;-81
2021/08/21 04:41:36;;;;;;;;;5.00;5.00;;;;;;;;5002468;28;45230;-81
2021/08/21 04:44:01;;;;;;;;;8.00;5.00;;;;;;;;5001675;28;45671;-81
2021/08/21 04:46:26;;;;;;;;;7.00;6.00;;;;;;;;5001316;28;45351;-81
2021/08/21 04:48:51;;;;;;;;;5.00;5.00;;;;;;;;5003337;28;46010;-81
2021/08/21 04:51:17;;;;;;;;;5.67;5.67;;;;;;;;5005207;28;45164;-81
2021/08/21 04:53:42;;;;;;;;;6.67;5.00;;;;;;;;5004964;28;45219;-81
2021/08/21 04:56:07;;;;;;;;;5.75;5.75;;;;;;;;4986868;28;45414;-81
2021/08/21 04:58:33;;;;;;;;;7.25;5.50;;;;;;;;5000957;28;45286;-81
2021/08/21 05:00:58;;;;;;;;;4.00;4.00;;;;;;;;5001135;28;45282;-81
2021/08/21 05:03:23;;;;;;;;;9.00;7.67;;;;;;;;4983697;28;45350;-81
2021/08/21 05:05:48;;;;;;;;;6.33;5.33;;;;;;;;5001101;28;45475;-81
2021/08/21 05:08:15;;;;;;;;;8.00;6.50;;;;;;;;4983842;28;46913;-81
2021/08/21 05:10:43;;;;;;;;;7.50;6.00;;;;;;;;5005236;28;45352;-81
2021/08/21 05:13:08;;;;;;;;;7.00;5.75;;;;;;;;5004481;28;45353;-82
2021/08/21 05:15:33;;;;;;;;;5.00;5.00;;;;;;;;5003447;28;45665;-82
2021/08/21 05:18:00;;;;;;;;;6.75;6.00;;;;;;;;5000591;28;46058;-82
2021/08/21 05:20:42;;;;;;;;;12.00;6.75;;;;;;;;5003542;28;45481;-81
2021/08/21 05:23:13;;;;;;;;;7.75;6.00;;;;;;;;5002979;28;45428;-81
2021/08/21 05:25:40;;;;;;;;;6.00;4.50;;;;;;;;4985815;28;45265;-82
2021/08/21 05:28:05;;;;;;;;;5.00;5.00;;;;;;;;5002964;28;45571;-81
2021/08/21 05:30:32;;;;;;;;;7.00;5.50;;;;;;;;4983165;28;45782;-81
2021/08/21 05:32:57;;;;;;;;;5.00;5.00;;;;;;;;5000869;28;45273;-81
2021/08/21 05:35:22;;;;;;;;;9.00;7.00;;;;;;;;5001304;28;45419;-81
2021/08/21 05:37:47;;;;;;;;;8.50;5.75;;;;;;;;4983725;28;47239;-81
2021/08/21 05:40:13;;;;;;;;;4.75;4.75;;;;;;;;5004602;28;45385;-81
2021/08/21 05:42:38;;;;;;;;;4.75;4.75;;;;;;;;4990834;28;45415;-81
2021/08/21 05:45:03;;;;;;;;;6.50;5.25;;;;;;;;5007493;28;45305;-81
2021/08/21 05:47:29;;;;;;;;;7.50;5.00;;;;;;;;4990061;28;47204;-80
2021/08/21 05:49:56;;;;;;;;;7.00;6.00;;;;;;;;5006196;28;45131;-81
2021/08/21 05:52:21;;;;;;;;;6.50;6.00;;;;;;;;4986650;28;45325;-81
2021/08/21 05:54:46;;;;;;;;;10.00;8.33;;;;;;;;4986082;28;45175;-81
2021/08/21 05:57:11;;;;;;;;;10.33;6.00;;;;;;;;4985741;28;47240;-81
2021/08/21 05:59:36;;;;;;;;;8.00;8.00;;;;;;;;5003615;28;45295;-81
2021/08/21 06:02:02;;;;;;;;;8.67;7.00;;;;;;;;5003212;28;45554;-81
2021/08/21 06:04:27;;;;;;;;;9.50;7.25;;;;;;;;5003266;28;45463;-81
2021/08/21 06:06:52;;;;;;;;;10.00;9.00;;;;;;;;5003460;28;45339;-81
2021/08/21 06:09:20;;;;;;;;;8.33;5.00;;;;;;;;5003296;28;45293;-81
2021/08/21 06:11:45;;;;;;;;;9.75;7.25;;;;;;;;5003791;28;45560;-81
2021/08/21 06:14:10;;;;;;;;;8.75;8.50;;;;;;;;5002645;28;45381;-81
2021/08/21 06:16:36;;;;;;;;;12.67;9.00;;;;;;;;5002552;28;45482;-81
2021/08/21 06:19:01;;;;;;;;;11.67;9.33;;;;;;;;5002493;28;45437;-81
2021/08/21 06:21:26;;;;;;;;;11.00;9.00;;;;;;;;5002944;28;45380;-81
2021/08/21 06:23:51;;;;;;;;;11.67;10.00;;;;;;;;5002649;28;45357;-81
2021/08/21 06:26:16;;;;;;;;;13.33;9.33;;;;;;;;5002574;28;45419;-81
2021/08/21 06:28:42;;;;;;;;;9.67;9.33;;;;;;;;5002410;28;45337;-81
2021/08/21 06:31:07;;;;;;;;;11.25;7.75;;;;;;;;5002477;28;45277;-81
2021/08/21 06:33:32;;;;;;;;;10.50;9.00;;;;;;;;5002370;28;45448;-81
2021/08/21 06:35:58;;;;;;;;;9.00;9.00;;;;;;;;4984707;28;48530;-81
2021/08/21 06:38:23;;;;;;;;;8.75;8.25;;;;;;;;5002395;28;45475;-81
2021/08/21 06:40:50;;;;;;;;;16.00;11.25;;;;;;;;5002527;28;45453;-81
2021/08/21 06:43:15;;;;;;;;;10.50;9.00;;;;;;;;5002359;28;45261;-81
2021/08/21 06:45:40;;;;;;;;;10.33;10.33;;;;;;;;5001915;28;45564;-81
2021/08/21 06:48:05;;;;;;;;;14.67;11.67;;;;;;;;5002137;28;45330;-81
2021/08/21 06:50:33;;;;;;;;;10.67;9.33;;;;;;;;5002302;28;45213;-81
2021/08/21 06:52:59;;;;;;;;;8.75;8.75;;;;;;;;5002028;28;45425;-81
2021/08/21 06:55:25;;;;;;;;;11.00;9.00;;;;;;;;5001969;28;46731;-81
2021/08/21 06:57:50;;;;;;;;;11.67;7.00;;;;;;;;5002274;28;45191;-81
2021/08/21 07:00:15;;;;;;;;;8.67;8.33;;;;;;;;5001973;28;45215;-81
2021/08/21 07:02:40;;;;;;;;;10.50;7.75;;;;;;;;5001942;28;45453;-81
2021/08/21 07:05:06;;;;;;;;;6.67;5.00;;;;;;;;5001980;28;45478;-81
2021/08/21 07:07:31;;;;;;;;;7.75;7.25;;;;;;;;5001800;28;45246;-81
2021/08/21 07:09:56;;;;;;;;;6.33;5.33;;;;;;;;5001947;28;45367;-81
2021/08/21 07:12:21;;;;;;;;;10.33;8.67;;;;;;;;4984096;28;45560;-81
2021/08/21 07:14:47;;;;;;;;;8.33;5.67;;;;;;;;5001384;28;46187;-81
2021/08/21 07:17:14;;;;;;;;;7.50;6.75;;;;;;;;4983923;28;45690;-82
2021/08/21 07:19:41;;;;;;;;;8.25;6.00;;;;;;;;5001738;28;45191;-82
2021/08/21 07:22:07;;;;;;;;;9.50;7.25;;;;;;;;4984105;28;45483;-82
2021/08/21 07:24:32;;;;;;;;;9.00;9.00;;;;;;;;5001346;28;45307;-82
2021/08/21 07:26:57;;;;;;;;;8.67;8.00;;;;;;;;5001437;28;45235;-82
2021/08/21 07:29:22;;;;;;;;;14.00;10.00;;;;;;;;5001492;28;45248;-82
2021/08/21 07:31:47;;;;;;;;;13.67;9.33;;;;;;;;5002835;28;45401;-82
2021/08/21 07:34:13;;;;;;;;;11.33;7.67;;;;;;;;5001326;28;46219;-82
2021/08/21 07:36:38;;;;;;;;;10.67;9.67;;;;;;;;5001523;28;45223;-82
2021/08/21 07:39:03;;;;;;;;;9.00;8.67;;;;;;;;5001513;28;45318;-82
2021/08/21 07:41:28;;;;;;;;;9.00;8.00;;;;;;;;5001560;28;45395;-82
2021/08/21 07:43:53;;;;;;;;;7.00;6.33;;;;;;;;4983505;28;47317;-82
2021/08/21 07:46:19;;;;;;;;;8.50;7.00;;;;;;;;5001172;28;45477;-82
2021/08/21 07:48:44;;;;;;;;;9.00;9.00;;;;;;;;4983567;28;45409;-82
2021/08/21 07:51:09;;;;;;;;;7.00;7.00;;;;;;;;5001215;28;45491;-82
2021/08/21 07:53:34;;;;;;;;;9.00;8.00;;;;;;;;5000933;28;46268;-82
2021/08/21 07:56:05;;;;;;;;;8.00;7.50;;;;;;;;5001158;28;45333;-83
2021/08/21 07:58:31;;;;;;;;;8.25;7.00;;;;;;;;5001272;28;45286;-83
2021/08/21 08:00:56;;;;;;;;;9.33;8.33;;;;;;;;5001356;28;45552;-80
2021/08/21 08:03:21;;;;;;;;;10.33;8.67;;;;;;;;4982220;28;47842;-83
2021/08/21 08:05:46;;;;;;;;;9.00;7.00;;;;;;;;5000822;28;45609;-80
2021/08/21 08:08:11;;;;;;;;;8.00;6.00;;;;;;;;4970544;28;45289;-80
2021/08/21 08:10:37;;;;;;;;;11.75;8.50;;;;;;;;5002856;28;45231;-80
2021/08/21 08:13:03;;;;;;;;;8.67;8.00;;;;;;;;5003425;28;45441;-83
2021/08/21 08:15:28;;;;;;;;;7.50;6.75;;;;;;;;4985750;28;45877;-80
2021/08/21 08:17:53;;;;;;;;;8.00;6.67;;;;;;;;5003347;28;45254;-81
2021/08/21 08:20:19;;;;;;;;;7.50;7.50;;;;;;;;5003170;28;45605;-81
2021/08/21 08:22:44;;;;;;;;;7.50;7.25;;;;;;;;5001782;28;45994;-81
2021/08/21 08:25:09;;;;;;;;;7.67;7.33;;;;;;;;5002157;28;45382;-81
2021/08/21 08:27:35;;;;;;;;;7.50;7.00;;;;;;;;4983898;28;45315;-81
2021/08/21 08:30:01;;;;;;;;;7.25;6.25;;;;;;;;5001753;28;45313;-83
2021/08/21 08:32:26;;;;;;;;;14.50;9.50;;;;;;;;5001811;28;46337;-81
2021/08/21 08:34:51;;;;;;;;;9.25;8.00;;;;;;;;5003213;28;45412;-81
2021/08/21 08:37:16;;;;;;;;;12.33;8.00;;;;;;;;5005111;28;45258;-81
2021/08/21 08:39:42;;;;;;;;;8.00;7.25;;;;;;;;4987981;28;45374;-81
2021/08/21 08:42:08;;;;;;;;;10.50;7.25;;;;;;;;5005283;28;45335;-81
2021/08/21 08:44:34;;;;;;;;;9.50;6.75;;;;;;;;5004963;28;44694;-81
2021/08/21 08:47:00;;;;;;;;;9.50;6.50;;;;;;;;5004139;28;45165;-81
2021/08/21 08:49:26;;;;;;;;;11.00;8.00;;;;;;;;5002611;28;45384;-81
2021/08/21 08:51:52;;;;;;;;;7.75;7.00;;;;;;;;5001558;28;45405;-81
2021/08/21 08:54:17;;;;;;;;;7.00;7.00;;;;;;;;5001608;28;45249;-81
2021/08/21 08:56:42;;;;;;;;;7.33;7.33;;;;;;;;5001421;28;45216;-81
2021/08/21 08:59:07;;;;;;;;;11.00;8.33;;;;;;;;5001292;28;45467;-81
2021/08/21 09:01:32;;;;;;;;;10.00;7.67;;;;;;;;4982893;28;47114;-82
2021/08/21 09:04:14;;;;;;;;;7.67;5.33;;;;;;;;4983232;28;45238;-81
2021/08/21 09:06:40;;;;;;;;;9.00;8.00;;;;;;;;4988747;28;45272;-82
2021/08/21 09:09:16;;;;;;;;;7.50;7.50;;;;;;;;4999441;28;45519;-81
2021/08/21 09:11:43;;;;;;;;;6.50;6.50;;;;;;;;5001022;28;45478;-82
2021/08/21 09:14:15;;;;;;;;;7.00;7.00;;;;;;;;4999996;28;45288;-82
2021/08/21 09:16:40;;;;;;;;;7.75;7.75;;;;;;;;5004529;28;45344;-82
2021/08/21 09:19:06;;;;;;;;;9.67;9.00;;;;;;;;5004154;28;45165;-82
2021/08/21 09:21:32;;;;;;;;;8.50;6.25;;;;;;;;5004576;28;45316;-82
2021/08/21 09:23:57;;;;;;;;;7.00;7.00;;;;;;;;5004203;28;45229;-83
2021/08/21 09:26:27;;;;;;;;;8.00;7.00;;;;;;;;5004312;28;45407;-83
2021/08/21 09:28:53;;;;;;;;;9.00;8.00;;;;;;;;5003830;28;45478;-83
2021/08/21 09:31:20;;;;;;;;;8.50;8.50;;;;;;;;5002720;28;47834;-83
2021/08/21 09:33:52;;;;;;;;;8.50;7.75;;;;;;;;5003436;28;45175;-83
2021/08/21 09:36:30;;;;;;;;;6.00;5.50;;;;;;;;5002328;28;45334;-83
2021/08/21 09:38:56;;;;;;;;;6.25;5.50;;;;;;;;5003325;28;45221;-83
2021/08/21 09:41:21;;;;;;;;;7.00;7.00;;;;;;;;5002105;28;48201;-83
2021/08/21 09:43:47;;;;;;;;;11.75;11.00;;;;;;;;5003307;28;45246;-83
2021/08/21 09:46:13;;;;;;;;;8.33;8.33;;;;;;;;5003259;28;45486;-83
2021/08/21 09:49:10;;;;;;;;;9.50;8.50;;;;;;;;5001867;28;45450;-83
2021/08/21 09:51:41;;;;;;;;;7.25;7.25;;;;;;;;4989521;28;47232;-82
2021/08/21 09:54:08;;;;;;;;;8.25;8.25;;;;;;;;5003375;28;45221;-83
2021/08/21 09:56:37;;;;;;;;;8.50;8.50;;;;;;;;5003383;28;45267;-83
2021/08/21 09:59:03;;;;;;;;;7.50;7.50;;;;;;;;5003145;28;45423;-84
2021/08/21 10:01:28;;;;;;;;;6.00;6.00;;;;;;;;5001366;28;46147;-84
2021/08/21 10:03:54;;;;;;;;;8.00;7.00;;;;;;;;5003175;28;45280;-84
2021/08/21 10:06:20;;;;;;;;;8.75;7.25;;;;;;;;5002812;28;45323;-83
2021/08/21 10:08:46;;;;;;;;;8.00;7.50;;;;;;;;5003020;28;45401;-84
2021/08/21 10:11:11;;;;;;;;;6.50;5.75;;;;;;;;5002733;28;46648;-84
2021/08/21 10:13:38;;;;;;;;;9.00;6.75;;;;;;;;5002836;28;45327;-83
2021/08/21 10:16:08;;;;;;;;;6.50;6.50;;;;;;;;5002768;28;45223;-83
2021/08/21 10:18:34;;;;;;;;;7.25;7.00;;;;;;;;5002754;28;45333;-84
2021/08/21 10:20:59;;;;;;;;;6.25;6.25;;;;;;;;5002601;28;46164;-83
2021/08/21 10:23:27;;;;;;;;;11.33;8.00;;;;;;;;5003037;28;45224;-83
2021/08/21 10:25:58;;;;;;;;;7.25;7.25;;;;;;;;5001967;28;45160;-83
2021/08/21 10:28:28;;;;;;;;;7.00;5.75;;;;;;;;5002882;28;45309;-83
2021/08/21 10:30:54;;;;;;;;;7.25;7.25;;;;;;;;5002157;28;46150;-83
2021/08/21 10:33:19;;;;;;;;;5.00;5.00;;;;;;;;5002565;28;45368;-83
2021/08/21 10:35:55;;;;;;;;;7.67;7.67;;;;;;;;5002560;28;45320;-83
2021/08/21 10:38:30;;;;;;;;;5.75;4.75;;;;;;;;5002592;28;45428;-83
2021/08/21 10:40:55;;;;;;;;;6.25;6.00;;;;;;;;5002557;28;45435;-83
2021/08/21 10:43:39;;;;;;;;;5.50;5.50;;;;;;;;5002476;28;45416;-83
2021/08/21 10:46:05;;;;;;;;;5.75;5.75;;;;;;;;5002421;28;45396;-83
2021/08/21 10:48:36;;;;;;;;;8.33;6.67;;;;;;;;5002308;28;45328;-83
2021/08/21 10:51:05;;;;;;;;;7.00;6.00;;;;;;;;5002969;28;45302;-83
2021/08/21 10:53:33;;;;;;;;;10.50;7.00;;;;;;;;5005089;28;45350;-83
2021/08/21 10:55:59;;;;;;;;;9.00;8.50;;;;;;;;4989712;28;45413;-83
2021/08/21 10:58:25;;;;;;;;;9.75;7.50;;;;;;;;4985628;28;46194;-83
2021/08/21 11:00:50;;;;;;;;;7.50;7.50;;;;;;;;4969831;28;47171;-83
2021/08/21 11:03:17;;;;;;;;;8.50;6.50;;;;;;;;4987660;28;45210;-83
2021/08/21 11:05:48;;;;;;;;;7.50;7.00;;;;;;;;4997594;28;45424;-82
2021/08/21 11:08:14;;;;;;;;;6.50;6.50;;;;;;;;4986130;28;46029;-83
2021/08/21 11:10:39;;;;;;;;;8.00;7.00;;;;;;;;4986013;28;46997;-83
2021/08/21 11:13:07;;;;;;;;;8.00;8.00;;;;;;;;5004722;28;45571;-83
2021/08/21 11:15:34;;;;;;;;;5.00;5.00;;;;;;;;5004984;28;45186;-83
2021/08/21 11:17:59;;;;;;;;;6.25;5.75;;;;;;;;4985882;28;46118;-83
2021/08/21 11:20:30;;;;;;;;;7.50;6.50;;;;;;;;4985108;28;46226;-83
2021/08/21 11:23:05;;;;;;;;;10.75;9.00;;;;;;;;5002507;28;45366;-83
2021/08/21 11:25:30;;;;;;;;;7.75;7.50;;;;;;;;5002675;28;45460;-83
2021/08/21 11:28:05;;;;;;;;;7.75;7.75;;;;;;;;4984719;28;45420;-83
2021/08/21 11:30:30;;;;;;;;;6.25;6.25;;;;;;;;5002162;28;45246;-82
2021/08/21 11:33:00;;;;;;;;;8.25;8.25;;;;;;;;5002714;28;45361;-82
2021/08/21 11:35:28;;;;;;;;;8.50;6.75;;;;;;;;5002640;28;45407;-82
2021/08/21 11:37:56;;;;;;;;;7.50;7.50;;;;;;;;5001238;28;45320;-82
2021/08/21 11:40:23;;;;;;;;;9.00;8.00;;;;;;;;4984546;28;47871;-83
2021/08/21 11:42:53;;;;;;;;;9.75;7.00;;;;;;;;5003955;28;45175;-82
2021/08/21 11:45:19;;;;;;;;;7.75;7.75;;;;;;;;5010267;28;45259;-83
2021/08/21 11:47:44;;;;;;;;;5.50;5.50;;;;;;;;5011369;28;45226;-82
2021/08/21 11:50:28;;;;;;;;;7.00;6.75;;;;;;;;4968420;28;47217;-83
2021/08/21 11:52:54;;;;;;;;;6.25;5.50;;;;;;;;4982664;28;45327;-82
2021/08/21 11:55:20;;;;;;;;;7.25;5.00;;;;;;;;4965098;28;45167;-83
2021/08/21 11:57:46;;;;;;;;;9.00;6.00;;;;;;;;4980127;28;45202;-84
2021/08/21 12:00:34;;;;;;;;;4.50;4.50;;;;;;;;4993409;28;46215;-88
2021/08/21 12:03:03;;;;;;;;;6.00;6.00;;;;;;;;4986946;28;45392;-84
2021/08/21 12:05:32;;;;;;;;;8.00;7.00;;;;;;;;5007446;28;45346;-85
2021/08/21 12:07:58;;;;;;;;;0.00;0.00;;;;;;;;5004932;28;45487;-86
2021/08/21 12:10:24;;;;;;;;;7.75;6.25;;;;;;;;4981001;28;47205;-84
2021/08/21 12:12:57;;;;;;;;;8.50;7.75;;;;;;;;4995358;28;45547;-86
2021/08/21 12:15:27;;;;;;;;;7.75;7.75;;;;;;;;4989077;28;45441;-83
2021/08/21 12:17:53;;;;;;;;;7.00;7.00;;;;;;;;4998091;28;45468;-83
2021/08/21 12:20:18;;;;;;;;;6.25;5.50;;;;;;;;4981835;28;46957;-84
2021/08/21 12:22:44;;;;;;;;;6.50;6.50;;;;;;;;4997382;28;45262;-86
2021/08/21 12:25:09;;;;;;;;;6.25;6.25;;;;;;;;4977728;28;45265;-90
2021/08/21 12:27:35;;;;;;;;;8.00;8.00;;;;;;;;4976480;28;45548;-89
2021/08/21 12:30:06;;;;;;;;;11.50;9.25;;;;;;;;4982313;28;47663;-89
2021/08/21 12:32:31;;;;;;;;;6.25;6.25;;;;;;;;5000028;28;45305;-87
2021/08/21 12:35:06;;;;;;;;;6.00;6.00;;;;;;;;4982285;28;45390;-84
2021/08/21 12:37:31;;;;;;;;;8.00;7.75;;;;;;;;4987994;28;45532;-84
2021/08/21 12:40:07;;;;;;;;;6.00;4.67;;;;;;;;4979323;28;47325;-83
2021/08/21 12:42:32;;;;;;;;;7.25;6.50;;;;;;;;4999510;28;45472;-83
2021/08/21 12:45:00;;;;;;;;;5.33;4.67;;;;;;;;4993469;28;45523;-84
2021/08/21 12:47:34;;;;;;;;;7.00;7.00;;;;;;;;5000468;28;45414;-83
2021/08/21 12:50:08;;;;;;;;;7.50;6.75;;;;;;;;5000611;28;45447;-83
2021/08/21 12:52:33;;;;;;;;;8.00;6.75;;;;;;;;4991923;28;45354;-85
2021/08/21 12:55:06;;;;;;;;;8.00;8.00;;;;;;;;4980180;28;45454;-83
2021/08/21 12:57:33;;;;;;;;;7.50;7.00;;;;;;;;4978261;28;45671;-82
2021/08/21 13:00:06;;;;;;;;;11.25;8.25;;;;;;;;4990452;28;45475;-84
2021/08/21 13:02:45;;;;;;;;;6.75;6.75;;;;;;;;4997381;28;45432;-85
2021/08/21 13:05:21;;;;;;;;;7.00;6.00;;;;;;;;4967298;28;45606;-83
2021/08/21 13:07:47;;;;;;;;;9.50;6.50;;;;;;;;5000569;28;45166;-83
2021/08/21 13:10:14;;;;;;;;;8.00;7.00;;;;;;;;4985266;28;47242;-84
2021/08/21 13:12:40;;;;;;;;;6.25;6.25;;;;;;;;4981408;28;45621;-83
2021/08/21 13:15:10;;;;;;;;;10.75;8.00;;;;;;;;4999186;28;45586;-82
2021/08/21 13:17:35;;;;;;;;;6.00;6.00;;;;;;;;5006252;28;45452;-82
2021/08/21 13:20:01;;;;;;;;;5.75;5.75;;;;;;;;5005106;28;46081;-82
2021/08/21 13:22:30;;;;;;;;;6.50;6.50;;;;;;;;4993429;28;45366;-81
2021/08/21 13:24:55;;;;;;;;;4.75;4.75;;;;;;;;5002238;28;45371;-82
2021/08/21 13:27:21;;;;;;;;;7.00;5.00;;;;;;;;5001407;28;45411;-82
2021/08/21 13:29:46;;;;;;;;;6.00;5.00;;;;;;;;4996965;28;45547;-82
2021/08/21 13:32:11;;;;;;;;;7.67;4.33;;;;;;;;4981832;28;45985;-85
2021/08/21 13:34:36;;;;;;;;;7.75;5.00;;;;;;;;4978676;28;45528;-85
2021/08/21 13:37:03;;;;;;;;;4.00;4.00;;;;;;;;4979961;28;45756;-87
2021/08/21 13:39:29;;;;;;;;;5.75;5.75;;;;;;;;4981795;28;46582;-87
2021/08/21 13:41:54;;;;;;;;;6.00;4.75;;;;;;;;4995320;28;45317;-85
2021/08/21 13:44:19;;;;;;;;;9.25;5.50;;;;;;;;4982072;28;45614;-85
2021/08/21 13:46:44;;;;;;;;;7.00;5.00;;;;;;;;4980195;28;45373;-84
2021/08/21 13:49:10;;;;;;;;;6.50;5.25;;;;;;;;4982391;28;46195;-85
2021/08/21 13:51:39;;;;;;;;;7.25;5.75;;;;;;;;4985383;28;45318;-85
2021/08/21 13:54:04;;;;;;;;;3.50;3.50;;;;;;;;4982629;28;45621;-86
2021/08/21 13:56:31;;;;;;;;;4.67;4.67;;;;;;;;4989821;28;45510;-85
2021/08/21 13:58:56;;;;;;;;;3.25;2.75;;;;;;;;4974924;28;47547;-87
2021/08/21 14:01:21;;;;;;;;;5.50;5.50;;;;;;;;4973477;28;45452;-86
2021/08/21 14:03:46;;;;;;;;;5.33;4.33;;;;;;;;5003304;28;45683;-87
2021/08/21 14:06:11;;;;;;;;;8.67;6.00;;;;;;;;4998225;28;45471;-87
2021/08/21 14:08:37;;;;;;;;;5.00;4.00;;;;;;;;5019569;28;45343;-87
2021/08/21 14:11:04;;;;;;;;;6.75;5.75;;;;;;;;5007506;28;45341;-88
2021/08/21 14:13:29;;;;;;;;;7.25;5.25;;;;;;;;5009336;28;45364;-88
2021/08/21 14:15:54;;;;;;;;;7.00;6.33;;;;;;;;4985024;28;45254;-88
2021/08/21 14:18:19;;;;;;;;;5.00;5.00;;;;;;;;4994113;28;46066;-86
2021/08/21 14:20:44;;;;;;;;;4.00;4.00;;;;;;;;5005724;28;45361;-87
2021/08/21 14:23:10;;;;;;;;;1.00;1.00;;;;;;;;5007333;28;45221;-86
2021/08/21 14:25:36;;;;;;;;;5.50;5.50;;;;;;;;5001931;28;45293;-85
2021/08/21 14:28:03;;;;;;;;;7.25;6.50;;;;;;;;4982765;28;48344;-86
2021/08/21 14:30:28;;;;;;;;;4.50;4.00;;;;;;;;5003464;28;45362;-87
2021/08/21 14:32:54;;;;;;;;;6.00;6.00;;;;;;;;4973593;28;45417;-89
2021/08/21 14:35:19;;;;;;;;;5.33;5.00;;;;;;;;5006444;28;45369;-89